createdAt,value
2023-01-29T00:01:49.778Z,100541.47
2023-01-29T00:04:16.496Z,100522.47
2023-01-29T00:06:43.985Z,100533.75
2023-01-29T00:09:12.041Z,100531.75
2023-01-29T00:11:38.673Z,100530.72
2023-01-29T00:14:05.615Z,100524.50
2023-01-29T00:16:32.420Z,100529.19
2023-01-29T00:18:59.013Z,100525.63
2023-01-29T00:21:25.516Z,100518.38
2023-01-29T00:23:55.331Z,100523.88
2023-01-29T00:26:22.001Z,100517.22
2023-01-29T00:28:48.962Z,100536.09
2023-01-29T00:31:21.572Z,100521.66
2023-01-29T00:33:49.119Z,100522.66
2023-01-29T00:36:17.816Z,100522.72
2023-01-29T00:38:44.630Z,100522.41
2023-01-29T00:41:34.199Z,100515.75
2023-01-29T00:44:20.368Z,100523.19
2023-01-29T00:46:46.894Z,100508.94
2023-01-29T00:49:14.493Z,100521.44
2023-01-29T00:51:41.312Z,100512.91
2023-01-29T00:54:07.853Z,100523.94
2023-01-29T00:56:36.492Z,100527.97
2023-01-29T00:59:04.363Z,100523.16
2023-01-29T01:01:49.237Z,100525.84
2023-01-29T01:04:16.041Z,100530.84
2023-01-29T01:06:43.261Z,100521.34
2023-01-29T01:09:29.666Z,100521.59
2023-01-29T01:11:56.277Z,100522.38
2023-01-29T01:14:22.788Z,100516.13
2023-01-29T01:16:49.816Z,100519.63
2023-01-29T01:19:16.525Z,100523.25
2023-01-29T01:21:48.270Z,100533.56
2023-01-29T01:24:15.500Z,100532.59
2023-01-29T01:26:42.316Z,100540.81
2023-01-29T01:29:09.223Z,100535.13
2023-01-29T01:31:35.931Z,100535.38
2023-01-29T01:34:02.540Z,100524.34
2023-01-29T01:36:29.088Z,100533.84
2023-01-29T01:38:55.687Z,100530.19
2023-01-29T01:41:23.285Z,100533.50
2023-01-29T01:43:50.993Z,100531.75
2023-01-29T01:46:18.169Z,100550.50
2023-01-29T01:48:49.084Z,100537.09
2023-01-29T01:51:16.843Z,100548.31
2023-01-29T01:53:55.571Z,100547.38
2023-01-29T01:56:28.059Z,100554.75
2023-01-29T01:58:57.280Z,100554.81
2023-01-29T02:04:21.717Z,100564.97
2023-01-29T02:07:07.367Z,100559.28
2023-01-29T02:09:46.543Z,100559.31
2023-01-29T02:12:16.125Z,100565.28
2023-01-29T02:14:43.499Z,100565.41
2023-01-29T02:17:13.162Z,100572.91
2023-01-29T02:20:10.793Z,100584.63
2023-01-29T02:23:03.733Z,100574.38
2023-01-29T02:25:54.847Z,100577.47
2023-01-29T02:28:36.521Z,100576.97
2023-01-29T02:31:40.089Z,100581.22
2023-01-29T02:34:26.151Z,100565.28
2023-01-29T02:37:03.461Z,100571.25
2023-01-29T02:39:45.022Z,100579.22
2023-01-29T02:42:27.915Z,100577.56
2023-01-29T02:44:58.099Z,100579.63
2023-01-29T02:47:38.473Z,100590.34
2023-01-29T02:50:10.831Z,100593.31
2023-01-29T02:52:50.775Z,100601.09
2023-01-29T02:55:23.681Z,100604.13
2023-01-29T02:57:56.528Z,100606.44
2023-01-29T03:00:29.433Z,100615.06
2023-01-29T03:03:03.959Z,100616.31
2023-01-29T03:05:44.975Z,100618.56
2023-01-29T03:08:18.045Z,100611.63
2023-01-29T03:10:53.770Z,100622.47
2023-01-29T03:13:36.838Z,100629.38
2023-01-29T03:16:11.502Z,100616.84
2023-01-29T03:18:46.171Z,100614.38
2023-01-29T03:21:55.361Z,100627.50
2023-01-29T03:24:54.274Z,100626.03
2023-01-29T03:27:43.384Z,100626.78
2023-01-29T03:30:32.613Z,100635.72
2023-01-29T03:33:03.442Z,100634.41
2023-01-29T03:35:36.697Z,100637.84
2023-01-29T03:38:05.765Z,100637.56
2023-01-29T03:40:43.230Z,100642.44
2023-01-29T03:43:14.170Z,100637.22
2023-01-29T03:45:50.159Z,100635.78
2023-01-29T03:48:31.447Z,100637.44
2023-01-29T03:51:21.908Z,100644.75
2023-01-29T03:54:12.161Z,100640.63
2023-01-29T03:56:41.424Z,100644.19
2023-01-29T03:59:11.947Z,100639.28
2023-01-29T04:02:00.866Z,100634.84
2023-01-29T04:04:31.856Z,100645.13
2023-01-29T04:07:24.684Z,100629.81
2023-01-29T04:10:08.410Z,100630.03
2023-01-29T04:12:43.549Z,100639.34
2023-01-29T04:15:15.402Z,100640.63
2023-01-29T04:17:47.443Z,100638.28
2023-01-29T04:20:14.493Z,100652.16
2023-01-29T04:22:48.086Z,100647.84
2023-01-29T04:25:26.762Z,100640.56
2023-01-29T04:28:26.553Z,100650.31
2023-01-29T04:31:03.853Z,100642.47
2023-01-29T04:34:07.212Z,100645.59
2023-01-29T04:36:45.969Z,100634.50
2023-01-29T04:39:21.196Z,100637.13
2023-01-29T04:41:55.557Z,100637.47
2023-01-29T04:44:59.109Z,100635.63
2023-01-29T04:48:03.400Z,100636.28
2023-01-29T04:50:47.303Z,100629.28
2023-01-29T04:53:37.139Z,100637.38
2023-01-29T04:56:48.641Z,100622.44
2023-01-29T04:59:21.539Z,100633.25
2023-01-29T05:01:48.932Z,100630.00
2023-01-29T05:04:20.495Z,100626.25
2023-01-29T05:06:47.942Z,100624.19
2023-01-29T05:09:16.793Z,100633.31
2023-01-29T05:11:45.584Z,100634.13
2023-01-29T05:14:14.844Z,100627.38
2023-01-29T05:16:50.719Z,100633.84
2023-01-29T05:19:17.755Z,100633.56
2023-01-29T05:21:49.358Z,100632.25
2023-01-29T05:24:19.290Z,100637.88
2023-01-29T05:27:07.611Z,100639.06
2023-01-29T05:29:34.402Z,100643.72
2023-01-29T05:32:01.297Z,100652.31
2023-01-29T05:34:27.895Z,100654.59
2023-01-29T05:36:54.701Z,100659.22
2023-01-29T05:39:21.379Z,100664.59
2023-01-29T05:41:47.905Z,100676.41
2023-01-29T05:44:14.556Z,100664.63
2023-01-29T05:46:41.077Z,100663.97
2023-01-29T05:49:07.595Z,100675.69
2023-01-29T05:51:34.540Z,100676.84
2023-01-29T05:54:01.069Z,100681.63
2023-01-29T05:56:27.653Z,100678.00
2023-01-29T05:58:54.557Z,100690.09
2023-01-29T06:01:23.670Z,100689.78
2023-01-29T06:03:50.214Z,100702.63
2023-01-29T06:06:17.459Z,100698.50
2023-01-29T06:08:44.087Z,100699.03
2023-01-29T06:11:13.192Z,100703.44
2023-01-29T06:13:39.858Z,100710.31
2023-01-29T06:16:10.773Z,100718.81
2023-01-29T06:18:38.409Z,100721.75
2023-01-29T06:21:07.473Z,100724.00
2023-01-29T06:23:34.244Z,100717.06
2023-01-29T06:26:05.737Z,100726.50
2023-01-29T06:28:32.452Z,100724.66
2023-01-29T06:31:11.435Z,100729.09
2023-01-29T06:33:38.787Z,100726.88
2023-01-29T06:36:05.829Z,100733.81
2023-01-29T06:38:32.824Z,100714.94
2023-01-29T06:40:59.672Z,100727.38
2023-01-29T06:43:26.242Z,100716.88
2023-01-29T06:45:57.603Z,100725.25
2023-01-29T06:48:25.065Z,100719.56
2023-01-29T06:50:55.032Z,100735.53
2023-01-29T06:53:21.701Z,100730.88
2023-01-29T06:55:52.176Z,100733.59
2023-01-29T06:58:19.144Z,100731.59
2023-01-29T07:00:45.708Z,100739.03
2023-01-29T07:03:12.389Z,100735.59
2023-01-29T07:05:38.935Z,100750.53
2023-01-29T07:08:05.692Z,100743.94
2023-01-29T07:10:32.548Z,100753.22
2023-01-29T07:12:59.994Z,100755.34
2023-01-29T07:15:27.484Z,100762.22
2023-01-29T07:18:02.422Z,100765.50
2023-01-29T07:20:30.353Z,100752.75
2023-01-29T07:22:58.352Z,100769.69
2023-01-29T07:25:25.631Z,100775.88
2023-01-29T07:27:52.145Z,100771.16
2023-01-29T07:30:19.007Z,100767.50
2023-01-29T07:32:45.931Z,100772.09
2023-01-29T07:35:12.445Z,100773.44
2023-01-29T07:37:39.022Z,100776.19
2023-01-29T07:40:11.289Z,100775.72
2023-01-29T07:42:42.290Z,100776.16
2023-01-29T07:45:09.266Z,100768.47
2023-01-29T07:47:36.016Z,100763.03
2023-01-29T07:50:03.370Z,100762.84
2023-01-29T07:52:31.266Z,100761.03
2023-01-29T07:54:57.827Z,100756.47
2023-01-29T07:57:24.670Z,100759.97
2023-01-29T07:59:51.544Z,100754.53
2023-01-29T08:02:18.323Z,100753.81
2023-01-29T08:04:44.886Z,100749.19
2023-01-29T08:07:11.451Z,100764.53
2023-01-29T08:09:38.082Z,100767.75
2023-01-29T08:12:04.854Z,100777.50
2023-01-29T08:14:31.464Z,100781.56
2023-01-29T08:16:58.181Z,100783.66
2023-01-29T08:19:24.691Z,100787.81
2023-01-29T08:21:51.350Z,100799.78
2023-01-29T08:24:18.117Z,100799.44
2023-01-29T08:26:44.662Z,100805.59
2023-01-29T08:29:12.136Z,100815.13
2023-01-29T08:31:38.879Z,100814.16
2023-01-29T08:34:05.404Z,100818.44
2023-01-29T08:36:31.969Z,100810.38
2023-01-29T08:38:58.570Z,100815.78
2023-01-29T08:41:25.068Z,100810.50
2023-01-29T08:43:51.666Z,100820.88
2023-01-29T08:46:18.308Z,100818.13
2023-01-29T08:48:44.857Z,100839.69
2023-01-29T08:51:11.600Z,100835.16
2023-01-29T08:53:38.213Z,100839.03
2023-01-29T08:56:05.046Z,100838.97
2023-01-29T08:58:31.599Z,100832.19
2023-01-29T09:01:06.420Z,100838.19
2023-01-29T09:03:33.046Z,100840.84
2023-01-29T09:05:59.597Z,100848.75
2023-01-29T09:08:26.266Z,100851.41
2023-01-29T09:10:52.881Z,100844.63
2023-01-29T09:13:19.631Z,100838.19
2023-01-29T09:15:46.316Z,100840.00
2023-01-29T09:18:12.909Z,100853.41
2023-01-29T09:20:39.573Z,100852.75
2023-01-29T09:23:08.257Z,100848.50
2023-01-29T09:25:35.357Z,100849.84
2023-01-29T09:28:02.058Z,100847.59
2023-01-29T09:30:29.270Z,100839.84
2023-01-29T09:32:55.915Z,100842.28
2023-01-29T09:35:23.500Z,100839.19
2023-01-29T09:37:51.331Z,100844.28
2023-01-29T09:40:26.751Z,100856.69
2023-01-29T09:43:13.018Z,100852.50
2023-01-29T09:45:45.915Z,100854.59
2023-01-29T09:48:13.374Z,100864.41
2023-01-29T09:50:43.703Z,100865.97
2023-01-29T09:53:34.849Z,100859.94
2023-01-29T09:56:06.126Z,100870.63
2023-01-29T09:58:36.329Z,100878.53
2023-01-29T10:01:14.027Z,100877.06
2023-01-29T10:04:04.763Z,100880.94
2023-01-29T10:06:51.279Z,100891.84
2023-01-29T10:09:42.530Z,100893.13
2023-01-29T10:12:36.779Z,100890.38
2023-01-29T10:15:31.400Z,100896.59
2023-01-29T10:18:19.349Z,100901.94
2023-01-29T10:21:28.470Z,100900.28
2023-01-29T10:24:10.335Z,100901.34
2023-01-29T10:26:38.253Z,100900.81
2023-01-29T10:29:07.617Z,100894.84
2023-01-29T10:31:39.144Z,100902.09
2023-01-29T10:34:19.381Z,100894.09
2023-01-29T10:36:48.107Z,100899.09
2023-01-29T10:39:20.739Z,100902.03
2023-01-29T10:42:02.133Z,100902.97
2023-01-29T10:44:40.599Z,100905.19
2023-01-29T10:47:46.524Z,100897.84
2023-01-29T10:50:16.447Z,100900.25
2023-01-29T10:53:01.428Z,100895.94
2023-01-29T10:56:14.076Z,100891.09
2023-01-29T10:58:47.577Z,100894.38
2023-01-29T11:01:14.844Z,100893.25
2023-01-29T11:03:41.477Z,100888.72
2023-01-29T11:06:32.328Z,100883.91
2023-01-29T11:09:01.898Z,100881.84
2023-01-29T11:11:50.456Z,100879.50
2023-01-29T11:14:24.259Z,100876.59
2023-01-29T11:16:51.370Z,100885.38
2023-01-29T11:19:18.084Z,100878.81
2023-01-29T11:21:58.715Z,100869.28
2023-01-29T11:24:25.942Z,100859.91
2023-01-29T11:26:55.067Z,100869.63
2023-01-29T11:29:37.050Z,100853.16
2023-01-29T11:32:07.745Z,100863.75
2023-01-29T11:34:34.539Z,100868.44
2023-01-29T11:37:15.044Z,100863.53
2023-01-29T11:39:47.304Z,100859.75
2023-01-29T11:42:22.039Z,100867.91
2023-01-29T11:44:49.402Z,100854.03
2023-01-29T11:47:26.613Z,100852.84
2023-01-29T11:49:59.542Z,100850.97
2023-01-29T11:52:34.916Z,100845.72
2023-01-29T11:55:05.402Z,100841.03
2023-01-29T11:57:38.933Z,100831.88
2023-01-29T12:00:18.250Z,100824.63
2023-01-29T12:02:47.848Z,100823.94
2023-01-29T12:05:20.287Z,100834.91
2023-01-29T12:07:51.478Z,100823.94
2023-01-29T12:10:36.328Z,100835.47
2023-01-29T12:13:19.982Z,100822.19
2023-01-29T12:15:48.999Z,100818.94
2023-01-29T12:18:15.655Z,100818.44
2023-01-29T12:20:54.675Z,100811.44
2023-01-29T12:23:30.921Z,100811.69
2023-01-29T12:26:06.154Z,100796.41
2023-01-29T12:28:59.909Z,100802.69
2023-01-29T12:31:40.947Z,100794.44
2023-01-29T12:34:22.707Z,100788.38
2023-01-29T12:37:31.562Z,100790.66
2023-01-29T12:39:58.074Z,100785.88
2023-01-29T12:42:25.481Z,100780.13
2023-01-29T12:44:56.747Z,100778.66
2023-01-29T12:47:44.120Z,100777.38
2023-01-29T12:50:33.445Z,100778.41
2023-01-29T12:53:26.418Z,100780.38
2023-01-29T12:56:11.161Z,100777.13
2023-01-29T12:58:47.625Z,100778.88
2023-01-29T13:01:38.070Z,100772.13
2023-01-29T13:04:25.012Z,100764.09
2023-01-29T13:06:55.370Z,100766.63
2023-01-29T13:09:29.034Z,100762.88
2023-01-29T13:12:13.619Z,100764.13
2023-01-29T13:14:45.970Z,100762.13
2023-01-29T13:17:36.045Z,100756.88
2023-01-29T13:20:05.208Z,100760.09
2023-01-29T13:22:38.766Z,100756.34
2023-01-29T13:25:06.198Z,100750.88
2023-01-29T13:27:35.096Z,100748.88
2023-01-29T13:30:02.196Z,100749.13
2023-01-29T13:32:34.808Z,100755.38
2023-01-29T13:35:05.049Z,100748.63
2023-01-29T13:37:36.497Z,100753.63
2023-01-29T13:40:06.738Z,100749.59
2023-01-29T13:42:50.436Z,100750.38
2023-01-29T13:45:22.666Z,100747.38
2023-01-29T13:47:51.109Z,100752.13
2023-01-29T13:50:41.294Z,100750.09
2023-01-29T13:53:09.500Z,100756.66
2023-01-29T13:55:38.507Z,100742.88
2023-01-29T13:58:15.186Z,100748.38
2023-01-29T14:00:41.635Z,100745.81
2023-01-29T14:03:13.988Z,100756.13
2023-01-29T14:05:57.677Z,100756.13
2023-01-29T14:08:39.380Z,100747.09
2023-01-29T14:11:18.226Z,100743.13
2023-01-29T14:13:49.938Z,100748.13
2023-01-29T14:16:16.586Z,100748.84
2023-01-29T14:19:17.466Z,100742.09
2023-01-29T14:21:50.312Z,100744.09
2023-01-29T14:24:22.548Z,100754.88
2023-01-29T14:26:55.128Z,100749.13
2023-01-29T14:29:39.734Z,100739.81
2023-01-29T14:32:06.352Z,100749.84
2023-01-29T14:34:45.728Z,100756.59
2023-01-29T14:37:15.406Z,100757.88
2023-01-29T14:39:45.393Z,100750.63
2023-01-29T14:42:25.818Z,100751.38
2023-01-29T14:44:55.114Z,100756.34
2023-01-29T14:47:41.655Z,100757.88
2023-01-29T14:50:26.685Z,100751.59
2023-01-29T14:52:54.481Z,100755.84
2023-01-29T14:55:35.862Z,100763.38
2023-01-29T14:58:04.209Z,100765.88
2023-01-29T15:00:36.779Z,100767.16
2023-01-29T15:03:12.330Z,100760.38
2023-01-29T15:05:39.403Z,100767.91
2023-01-29T15:08:38.244Z,100765.41
2023-01-29T15:11:30.881Z,100768.41
2023-01-29T15:14:01.152Z,100760.63
2023-01-29T15:16:59.319Z,100772.56
2023-01-29T15:19:35.464Z,100767.09
2023-01-29T15:22:04.308Z,100764.28
2023-01-29T15:24:30.846Z,100771.53
2023-01-29T15:26:57.925Z,100776.78
2023-01-29T15:29:27.108Z,100777.31
2023-01-29T15:31:55.111Z,100774.84
2023-01-29T15:34:21.945Z,100769.56
2023-01-29T15:36:50.127Z,100776.09
2023-01-29T15:39:23.661Z,100766.09
2023-01-29T15:42:04.222Z,100774.59
2023-01-29T15:44:30.953Z,100764.81
2023-01-29T15:46:59.900Z,100760.84
2023-01-29T15:49:33.035Z,100772.34
2023-01-29T15:52:03.639Z,100763.78
2023-01-29T15:54:35.014Z,100768.09
2023-01-29T15:57:01.894Z,100775.84
2023-01-29T15:59:34.696Z,100770.09
2023-01-29T16:02:42.866Z,100769.78
2023-01-29T16:05:16.347Z,100775.28
2023-01-29T16:07:44.246Z,100771.25
2023-01-29T16:10:25.471Z,100768.41
2023-01-29T16:12:53.282Z,100768.22
2023-01-29T16:15:30.515Z,100764.28
2023-01-29T16:17:57.737Z,100767.47
2023-01-29T16:20:35.001Z,100760.97
2023-01-29T16:23:02.040Z,100766.97
2023-01-29T16:25:30.645Z,100765.25
2023-01-29T16:27:58.463Z,100753.28
2023-01-29T16:30:27.947Z,100765.22
2023-01-29T16:33:02.409Z,100761.81
2023-01-29T16:35:29.252Z,100759.16
2023-01-29T16:38:02.703Z,100770.94
2023-01-29T16:40:35.512Z,100770.03
2023-01-29T16:43:16.992Z,100769.28
2023-01-29T16:45:43.671Z,100770.28
2023-01-29T16:48:30.589Z,100759.59
2023-01-29T16:51:13.601Z,100765.13
2023-01-29T16:53:55.331Z,100769.88
2023-01-29T16:56:26.070Z,100773.59
2023-01-29T16:58:54.478Z,100768.63
2023-01-29T17:01:24.293Z,100780.38
2023-01-29T17:04:00.735Z,100778.84
2023-01-29T17:06:28.483Z,100790.72
2023-01-29T17:08:55.443Z,100789.75
2023-01-29T17:11:31.546Z,100791.25
2023-01-29T17:13:58.357Z,100800.03
2023-01-29T17:16:33.681Z,100792.84
2023-01-29T17:19:01.109Z,100788.88
2023-01-29T17:21:29.491Z,100792.34
2023-01-29T17:23:56.352Z,100789.31
2023-01-29T17:26:24.716Z,100796.59
2023-01-29T17:28:51.725Z,100793.34
2023-01-29T17:31:18.640Z,100796.25
2023-01-29T17:33:45.952Z,100799.81
2023-01-29T17:36:14.851Z,100805.31
2023-01-29T17:38:41.793Z,100792.25
2023-01-29T17:41:12.491Z,100801.84
2023-01-29T17:43:39.160Z,100807.53
2023-01-29T17:46:05.844Z,100813.84
2023-01-29T17:48:32.949Z,100811.50
2023-01-29T17:51:03.384Z,100821.88
2023-01-29T17:53:44.254Z,100818.03
2023-01-29T17:56:17.116Z,100824.28
2023-01-29T17:58:44.139Z,100825.78
2023-01-29T18:01:10.677Z,100824.13
2023-01-29T18:03:37.403Z,100812.84
2023-01-29T18:06:07.531Z,100814.28
2023-01-29T18:08:36.174Z,100820.28
2023-01-29T18:11:02.833Z,100818.03
2023-01-29T18:13:29.503Z,100823.53
2023-01-29T18:15:56.011Z,100820.47
2023-01-29T18:18:24.177Z,100813.78
2023-01-29T18:20:51.224Z,100818.97
2023-01-29T18:23:17.860Z,100824.53
2023-01-29T18:25:44.866Z,100821.75
2023-01-29T18:28:17.198Z,100811.78
2023-01-29T18:30:47.046Z,100820.31
2023-01-29T18:33:14.914Z,100818.13
2023-01-29T18:35:41.492Z,100820.56
2023-01-29T18:38:08.046Z,100823.84
2023-01-29T18:40:34.691Z,100828.53
2023-01-29T18:43:01.447Z,100827.44
2023-01-29T18:45:28.748Z,100829.97
2023-01-29T18:47:56.015Z,100831.78
2023-01-29T18:50:26.504Z,100832.28
2023-01-29T18:52:54.465Z,100833.19
2023-01-29T18:55:21.801Z,100845.88
2023-01-29T18:58:26.372Z,100842.63
2023-01-29T19:00:38.513Z,100841.09
2023-01-29T19:03:05.353Z,100837.00
2023-01-29T19:05:34.019Z,100845.38
2023-01-29T19:08:01.902Z,100850.03
2023-01-29T19:10:28.607Z,100853.31
2023-01-29T19:12:55.123Z,100852.75
2023-01-29T19:15:22.793Z,100854.56
2023-01-29T19:17:53.159Z,100849.91
2023-01-29T19:20:20.036Z,100849.00
2023-01-29T19:22:46.923Z,100849.66
2023-01-29T19:25:13.826Z,100862.91
2023-01-29T19:27:40.387Z,100863.63
2023-01-29T19:30:08.614Z,100857.47
2023-01-29T19:32:35.507Z,100860.00
2023-01-29T19:35:02.188Z,100872.84
2023-01-29T19:37:30.952Z,100869.84
2023-01-29T19:39:57.884Z,100871.63
2023-01-29T19:42:24.380Z,100877.66
2023-01-29T19:44:52.118Z,100880.47
2023-01-29T19:47:18.777Z,100877.88
2023-01-29T19:49:45.546Z,100871.69
2023-01-29T19:52:18.650Z,100873.41
2023-01-29T19:54:48.086Z,100869.91
2023-01-29T19:57:14.683Z,100874.34
2023-01-29T19:59:41.276Z,100874.34
2023-01-29T20:02:09.457Z,100871.34
2023-01-29T20:04:36.052Z,100868.94
2023-01-29T20:07:02.572Z,100872.66
2023-01-29T20:09:30.405Z,100876.88
2023-01-29T20:11:57.175Z,100884.22
2023-01-29T20:14:23.715Z,100888.91
2023-01-29T20:16:50.270Z,100896.81
2023-01-29T20:19:16.913Z,100893.31
2023-01-29T20:21:46.846Z,100888.88
2023-01-29T20:24:13.522Z,100886.41
2023-01-29T20:26:40.472Z,100894.97
2023-01-29T20:29:07.066Z,100893.66
2023-01-29T20:31:33.911Z,100889.69
2023-01-29T20:34:00.574Z,100886.78
2023-01-29T20:36:27.166Z,100895.84
2023-01-29T20:38:53.794Z,100895.44
2023-01-29T20:41:21.202Z,100902.66
2023-01-29T20:43:49.809Z,100903.06
2023-01-29T20:46:17.019Z,100910.03
2023-01-29T20:48:43.646Z,100905.22
2023-01-29T20:51:15.335Z,100909.13
2023-01-29T20:53:45.189Z,100903.69
2023-01-29T20:56:13.345Z,100912.50
2023-01-29T20:58:41.168Z,100906.63
2023-01-29T21:01:12.820Z,100912.91
2023-01-29T21:03:39.886Z,100909.28
2023-01-29T21:06:10.521Z,100911.94
2023-01-29T21:08:38.200Z,100912.78
2023-01-29T21:11:06.662Z,100918.41
2023-01-29T21:13:33.640Z,100913.09
2023-01-29T21:16:00.496Z,100913.88
2023-01-29T21:18:27.050Z,100918.31
2023-01-29T21:20:54.603Z,100924.75
2023-01-29T21:23:21.826Z,100921.66
2023-01-29T21:25:48.474Z,100917.28
2023-01-29T21:28:15.987Z,100917.13
2023-01-29T21:30:42.639Z,100916.66
2023-01-29T21:33:09.297Z,100930.84
2023-01-29T21:35:37.768Z,100920.03
2023-01-29T21:38:04.756Z,100919.25
2023-01-29T21:40:31.370Z,100917.31
2023-01-29T21:43:12.951Z,100911.97
2023-01-29T21:45:40.674Z,100908.78
2023-01-29T21:48:08.143Z,100904.03
2023-01-29T21:50:34.900Z,100903.53
2023-01-29T21:53:01.732Z,100907.09
2023-01-29T21:55:28.440Z,100904.41
2023-01-29T21:57:55.083Z,100912.53
2023-01-29T22:00:22.411Z,100899.59
2023-01-29T22:02:50.172Z,100894.19
2023-01-29T22:05:19.646Z,100900.81
2023-01-29T22:07:47.083Z,100890.25
2023-01-29T22:10:13.710Z,100887.63
2023-01-29T22:12:40.604Z,100882.59
2023-01-29T22:15:08.166Z,100891.81
2023-01-29T22:17:35.376Z,100887.34
2023-01-29T22:20:02.625Z,100882.97
2023-01-29T22:22:29.259Z,100883.03
2023-01-29T22:24:57.680Z,100876.91
2023-01-29T22:27:24.790Z,100869.59
2023-01-29T22:29:51.476Z,100866.94
2023-01-29T22:32:18.230Z,100862.97
2023-01-29T22:34:44.911Z,100865.13
2023-01-29T22:37:11.610Z,100873.88
2023-01-29T22:39:38.127Z,100864.59
2023-01-29T22:42:04.908Z,100858.78
2023-01-29T22:44:31.462Z,100867.03
2023-01-29T22:46:57.994Z,100855.06
2023-01-29T22:49:25.816Z,100855.84
2023-01-29T22:52:10.035Z,100844.19
2023-01-29T22:54:41.416Z,100851.56
2023-01-29T22:57:11.281Z,100844.38
2023-01-29T22:59:38.293Z,100843.56
2023-01-29T23:02:05.468Z,100838.38
2023-01-29T23:04:32.116Z,100834.72
2023-01-29T23:06:58.966Z,100836.00
2023-01-29T23:09:25.648Z,100823.88
2023-01-29T23:11:52.175Z,100819.59
2023-01-29T23:14:18.967Z,100813.56
2023-01-29T23:16:45.626Z,100811.66
2023-01-29T23:19:12.450Z,100807.63
2023-01-29T23:21:39.798Z,100809.13
2023-01-29T23:24:07.618Z,100806.38
2023-01-29T23:26:52.791Z,100810.94
2023-01-29T23:29:19.607Z,100805.75
2023-01-29T23:31:46.259Z,100798.78
2023-01-29T23:34:13.783Z,100801.78
2023-01-29T23:36:40.511Z,100793.28
2023-01-29T23:39:07.272Z,100796.56
2023-01-29T23:41:34.024Z,100790.56
2023-01-29T23:44:00.841Z,100792.28
2023-01-29T23:46:27.417Z,100790.34
2023-01-29T23:48:53.979Z,100788.41
2023-01-29T23:51:20.617Z,100789.31
2023-01-29T23:53:47.263Z,100786.53
2023-01-29T23:56:13.800Z,100785.31
2023-01-29T23:58:40.766Z,100788.03
